Time;durP1;ratioP1;P1;durP2;ratioP2;P2;SDS_P1;SDS_P2;PMS_P1;PMS_P2;Temp;Humidity;BMP_temperature;BMP_pressure;BME280_temperature;BME280_humidity;BME280_pressure;Samples;Min_cycle;Max_cycle;Signal;HPM_P1;HPM_P2
2022/08/24 00:01:54;;;;;;;;;;;15.70;99.90;;;;;;5011887;28;19925;-72
2022/08/24 00:04:26;;;;;;;;;;;15.70;99.90;;;;;;5036848;28;20285;-71
2022/08/24 00:06:58;;;;;;;;;;;15.60;99.90;;;;;;5020886;28;19921;-71
2022/08/24 00:09:30;;;;;;;;;;;15.60;99.90;;;;;;5013723;28;19975;-72
2022/08/24 00:12:03;;;;;;;;;;;15.50;99.90;;;;;;5006128;28;19925;-72
2022/08/24 00:14:35;;;;;;;;;;;15.50;99.90;;;;;;5010316;28;19928;-71
2022/08/24 00:17:07;;;;;;;;;;;15.40;99.90;;;;;;5023651;28;19921;-72
2022/08/24 00:19:39;;;;;;;;;;;15.40;99.90;;;;;;5012442;28;19926;-71
2022/08/24 00:22:11;;;;;;;;;;;15.40;99.90;;;;;;5000918;28;19926;-72
2022/08/24 00:24:43;;;;;;;;;;;15.40;99.90;;;;;;5020964;28;19968;-71
2022/08/24 00:27:10;;;;;;;;;;;15.30;99.90;;;;;;5013145;28;19929;-71
2022/08/24 00:29:42;;;;;;;;;;;15.30;99.90;;;;;;5003863;28;20394;-71
2022/08/24 00:32:14;;;;;;;;;;;15.30;99.90;;;;;;5022806;28;20086;-71
2022/08/24 00:34:40;;;;;;;;;;;15.20;99.90;;;;;;5002537;28;19927;-71
2022/08/24 00:37:12;;;;;;;;;;;15.20;99.90;;;;;;5016800;28;20004;-71
2022/08/24 00:39:44;;;;;;;;;;;15.20;99.90;;;;;;5023829;28;19945;-71
2022/08/24 00:42:15;;;;;;;;;;;15.10;99.90;;;;;;5023539;28;20016;-71
2022/08/24 00:44:47;;;;;;;;;;;15.10;99.90;;;;;;5023065;28;20338;-71
2022/08/24 00:47:20;;;;;;;;;;;15.00;99.90;;;;;;5019085;28;20028;-71
2022/08/24 00:49:55;;;;;;;;;;;15.00;99.90;;;;;;4987537;28;19972;-71
2022/08/24 00:52:32;;;;;;;;;;;15.00;99.90;;;;;;5004723;28;20020;-71
2022/08/24 00:55:06;;;;;;;;;;;15.00;99.90;;;;;;5027394;28;19921;-71
2022/08/24 00:57:40;;;;;;;;;;;15.00;99.90;;;;;;5038751;28;19927;-71
2022/08/24 01:00:15;;;;;;;;;;;15.00;99.90;;;;;;5018787;28;19927;-72
2022/08/24 01:02:49;;;;;;;;;;;15.00;99.90;;;;;;5005348;28;20007;-71
2022/08/24 01:05:21;;;;;;;;;;;15.00;99.90;;;;;;5001993;28;19921;-71
2022/08/24 01:07:52;;;;;;;;;;;14.90;99.90;;;;;;5013260;28;20403;-72
2022/08/24 01:10:25;;;;;;;;;;;14.90;99.90;;;;;;5003155;28;19968;-71
2022/08/24 01:12:59;;;;;;;;;;;14.80;99.90;;;;;;5022289;28;19925;-72
2022/08/24 01:15:36;;;;;;;;;;;14.70;99.90;;;;;;4998619;28;20388;-71
2022/08/24 01:21:20;;;;;;;;;;;14.60;99.90;;;;;;4992078;28;20410;-72
2022/08/24 01:23:54;;;;;;;;;;;14.50;99.90;;;;;;5002106;28;19929;-72
2022/08/24 01:26:26;;;;;;;;;;;14.50;99.90;;;;;;5001620;28;19926;-72
2022/08/24 01:29:09;;;;;;;;;;;14.50;99.90;;;;;;5010591;28;19927;-71
2022/08/24 01:31:41;;;;;;;;;;;14.40;99.90;;;;;;5025981;28;19968;-71
2022/08/24 01:34:13;;;;;;;;;;;14.40;99.90;;;;;;5021591;28;19921;-72
2022/08/24 01:36:49;;;;;;;;;;;14.30;99.90;;;;;;5001176;28;19925;-71
2022/08/24 01:39:24;;;;;;;;;;;14.20;99.90;;;;;;5007061;28;19971;-72
2022/08/24 01:41:56;;;;;;;;;;;14.20;99.90;;;;;;5023904;28;19921;-71
2022/08/24 01:44:31;;;;;;;;;;;14.20;99.90;;;;;;5019438;28;19928;-71
2022/08/24 01:47:04;;;;;;;;;;;14.20;99.90;;;;;;5035980;28;19925;-71
2022/08/24 01:49:37;;;;;;;;;;;14.20;99.90;;;;;;5021175;28;19932;-71
2022/08/24 01:52:11;;;;;;;;;;;14.20;99.90;;;;;;5002007;28;19933;-71
2022/08/24 01:54:43;;;;;;;;;;;14.10;99.90;;;;;;5012540;28;20410;-71
2022/08/24 01:57:14;;;;;;;;;;;14.10;99.90;;;;;;5011768;28;20425;-72
2022/08/24 01:59:46;;;;;;;;;;;14.10;99.90;;;;;;5019478;28;20013;-71
2022/08/24 02:02:21;;;;;;;;;;;14.10;99.90;;;;;;5040255;28;19921;-72
2022/08/24 02:04:53;;;;;;;;;;;14.10;99.90;;;;;;5005904;28;19929;-71
2022/08/24 02:07:25;;;;;;;;;;;14.10;99.90;;;;;;5006901;28;19929;-72
2022/08/24 02:09:52;;;;;;;;;;;14.10;99.90;;;;;;5024012;28;19936;-72
2022/08/24 02:12:19;;;;;;;;;;;14.10;99.90;;;;;;4996853;28;19928;-71
2022/08/24 02:14:51;;;;;;;;;;;14.10;99.90;;;;;;4995824;28;19948;-71
2022/08/24 02:17:17;;;;;;;;;;;14.10;99.90;;;;;;5004873;28;19921;-72
2022/08/24 02:19:52;;;;;;;;;;;14.10;99.90;;;;;;5002210;28;19927;-71
2022/08/24 02:22:24;;;;;;;;;;;14.00;99.90;;;;;;5014759;28;19987;-72
2022/08/24 02:24:56;;;;;;;;;;;14.00;99.90;;;;;;5024712;28;19921;-72
2022/08/24 02:27:28;;;;;;;;;;;13.90;99.90;;;;;;5021923;28;20366;-72
2022/08/24 02:30:00;;;;;;;;;;;13.90;99.90;;;;;;5005578;28;19928;-72
2022/08/24 02:32:32;;;;;;;;;;;13.90;99.90;;;;;;5015593;28;20291;-71
2022/08/24 02:35:04;;;;;;;;;;;14.00;99.90;;;;;;5019663;28;19921;-71
2022/08/24 02:37:36;;;;;;;;;;;14.00;99.90;;;;;;5021551;28;19921;-71
2022/08/24 02:40:11;;;;;;;;;;;13.90;99.90;;;;;;5038195;28;20396;-72
2022/08/24 02:42:43;;;;;;;;;;;13.90;99.90;;;;;;5012443;28;20400;-71
2022/08/24 02:45:09;;;;;;;;;;;13.90;99.90;;;;;;5006821;28;19925;-71
2022/08/24 02:47:42;;;;;;;;;;;13.80;99.90;;;;;;5014789;28;20016;-73
2022/08/24 02:50:15;;;;;;;;;;;13.70;99.90;;;;;;5005055;28;19921;-71
2022/08/24 02:52:47;;;;;;;;;;;13.70;99.90;;;;;;5006241;28;19987;-71
2022/08/24 02:55:19;;;;;;;;;;;13.60;99.90;;;;;;5011901;28;19925;-71
2022/08/24 02:57:51;;;;;;;;;;;13.60;99.90;;;;;;4990288;28;19928;-71
2022/08/24 03:00:23;;;;;;;;;;;13.60;99.90;;;;;;5012185;28;20029;-71
2022/08/24 03:02:55;;;;;;;;;;;13.60;99.90;;;;;;5003636;28;20439;-72
2022/08/24 03:05:27;;;;;;;;;;;13.60;99.90;;;;;;5021462;28;19932;-71
2022/08/24 03:07:54;;;;;;;;;;;13.60;99.90;;;;;;5011918;28;19925;-71
2022/08/24 03:10:26;;;;;;;;;;;13.60;99.90;;;;;;5022220;28;19921;-72
2022/08/24 03:13:00;;;;;;;;;;;13.50;99.90;;;;;;5036447;28;19921;-71
2022/08/24 03:15:32;;;;;;;;;;;13.50;99.90;;;;;;5011500;28;19925;-72
2022/08/24 03:18:04;;;;;;;;;;;13.50;99.90;;;;;;5015402;28;20283;-72
2022/08/24 03:20:30;;;;;;;;;;;13.50;99.90;;;;;;5012311;28;20020;-71
2022/08/24 03:23:03;;;;;;;;;;;13.50;99.90;;;;;;4998506;28;19957;-72
2022/08/24 03:25:29;;;;;;;;;;;13.60;99.90;;;;;;5012139;28;20443;-71
2022/08/24 03:28:01;;;;;;;;;;;13.50;99.90;;;;;;5023340;28;19921;-71
2022/08/24 03:30:33;;;;;;;;;;;13.50;99.90;;;;;;5004382;28;19921;-72
2022/08/24 03:33:05;;;;;;;;;;;13.60;99.90;;;;;;5014793;28;19971;-71
2022/08/24 03:35:38;;;;;;;;;;;13.50;99.90;;;;;;5038097;28;20346;-72
2022/08/24 03:38:12;;;;;;;;;;;13.40;99.90;;;;;;5004159;28;19921;-71
2022/08/24 03:40:44;;;;;;;;;;;13.40;99.90;;;;;;5007747;28;19921;-72
2022/08/24 03:46:04;;;;;;;;;;;13.30;99.90;;;;;;5019515;28;19921;-71
2022/08/24 03:48:38;;;;;;;;;;;13.30;99.90;;;;;;5004994;28;19921;-72
2022/08/24 03:51:12;;;;;;;;;;;13.30;99.90;;;;;;5011817;28;19944;-71
2022/08/24 03:53:45;;;;;;;;;;;13.30;99.90;;;;;;5003315;28;20501;-70
2022/08/24 03:56:18;;;;;;;;;;;13.30;99.90;;;;;;5006379;28;19972;-72
2022/08/24 03:58:50;;;;;;;;;;;13.20;99.90;;;;;;5036852;28;20033;-70
2022/08/24 04:01:24;;;;;;;;;;;13.20;99.90;;;;;;5006286;28;19925;-71
2022/08/24 04:03:57;;;;;;;;;;;13.20;99.90;;;;;;5021009;28;20335;-71
2022/08/24 04:06:32;;;;;;;;;;;13.20;99.90;;;;;;5011726;28;19922;-71
2022/08/24 04:09:04;;;;;;;;;;;13.10;99.90;;;;;;5025901;28;20011;-71
2022/08/24 04:11:38;;;;;;;;;;;13.10;99.90;;;;;;5004398;28;19921;-71
2022/08/24 04:14:11;;;;;;;;;;;13.10;99.90;;;;;;5021204;28;20303;-74
2022/08/24 04:16:46;;;;;;;;;;;13.10;99.90;;;;;;5010501;28;20434;-72
2022/08/24 04:19:24;;;;;;;;;;;13.00;99.90;;;;;;5014024;28;19921;-70
2022/08/24 04:21:57;;;;;;;;;;;13.00;99.90;;;;;;5011767;28;19921;-71
2022/08/24 04:24:30;;;;;;;;;;;13.00;99.90;;;;;;5013008;28;20411;-72
2022/08/24 04:27:01;;;;;;;;;;;13.00;99.90;;;;;;5002732;28;20381;-73
2022/08/24 04:29:33;;;;;;;;;;;13.00;99.90;;;;;;4997080;28;20397;-71
2022/08/24 04:32:05;;;;;;;;;;;13.00;99.90;;;;;;5020200;28;20020;-72
2022/08/24 04:34:36;;;;;;;;;;;13.00;99.90;;;;;;5012778;28;20296;-72
2022/08/24 04:37:09;;;;;;;;;;;13.00;99.90;;;;;;5038604;28;19960;-71
2022/08/24 04:39:41;;;;;;;;;;;12.90;99.90;;;;;;5001327;28;19981;-72
2022/08/24 04:42:23;;;;;;;;;;;12.90;99.90;;;;;;4996737;28;19921;-71
2022/08/24 04:44:55;;;;;;;;;;;12.90;99.90;;;;;;5012596;28;19921;-72
2022/08/24 04:47:27;;;;;;;;;;;12.90;99.90;;;;;;5010781;28;20388;-71
2022/08/24 04:49:59;;;;;;;;;;;12.90;99.90;;;;;;5005305;28;19920;-71
2022/08/24 04:52:30;;;;;;;;;;;12.90;99.90;;;;;;5017965;28;19921;-71
2022/08/24 04:55:02;;;;;;;;;;;12.90;99.90;;;;;;4999402;28;19932;-71
2022/08/24 04:57:34;;;;;;;;;;;12.90;99.90;;;;;;5006588;28;19960;-71
2022/08/24 05:00:08;;;;;;;;;;;12.90;99.90;;;;;;5011209;28;20391;-72
2022/08/24 05:02:42;;;;;;;;;;;13.00;99.90;;;;;;5018384;28;20011;-71
2022/08/24 05:05:14;;;;;;;;;;;13.00;99.90;;;;;;5005552;28;20622;-71
2022/08/24 05:07:46;;;;;;;;;;;12.90;99.90;;;;;;5021757;28;20288;-71
2022/08/24 05:10:13;;;;;;;;;;;12.90;99.90;;;;;;5010558;28;19925;-72
2022/08/24 05:12:44;;;;;;;;;;;13.00;99.90;;;;;;5003396;28;19927;-71
2022/08/24 05:15:18;;;;;;;;;;;13.00;99.90;;;;;;5038080;28;19951;-71
2022/08/24 05:17:49;;;;;;;;;;;13.00;99.90;;;;;;5014578;28;19922;-72
2022/08/24 05:20:21;;;;;;;;;;;13.10;99.90;;;;;;5003135;28;19926;-71
2022/08/24 05:22:53;;;;;;;;;;;13.10;99.90;;;;;;5010905;28;19921;-71
2022/08/24 05:25:20;;;;;;;;;;;13.10;99.90;;;;;;5037541;28;19964;-71
2022/08/24 05:27:52;;;;;;;;;;;13.10;99.90;;;;;;5010837;28;19925;-72
2022/08/24 05:30:24;;;;;;;;;;;13.20;99.90;;;;;;5008066;28;20391;-70
2022/08/24 05:32:56;;;;;;;;;;;13.20;99.90;;;;;;5008322;28;19928;-71
2022/08/24 05:35:27;;;;;;;;;;;13.20;99.90;;;;;;5017729;28;19975;-72
2022/08/24 05:37:59;;;;;;;;;;;13.20;99.90;;;;;;5025230;28;20299;-71
2022/08/24 05:40:35;;;;;;;;;;;13.30;99.90;;;;;;5006110;28;19964;-71
2022/08/24 05:43:07;;;;;;;;;;;13.20;99.90;;;;;;5007420;28;20328;-72
2022/08/24 05:45:40;;;;;;;;;;;13.20;99.90;;;;;;5020214;28;19928;-71
2022/08/24 05:48:07;;;;;;;;;;;13.20;99.90;;;;;;5009390;28;20028;-71
2022/08/24 05:50:57;;;;;;;;;;;13.30;99.90;;;;;;5023736;28;20059;-71
2022/08/24 05:53:33;;;;;;;;;;;13.30;99.90;;;;;;5001544;28;19921;-75
2022/08/24 05:56:07;;;;;;;;;;;13.40;99.90;;;;;;5019463;28;19926;-71
2022/08/24 05:58:39;;;;;;;;;;;13.50;99.90;;;;;;5001729;28;19944;-73
2022/08/24 06:01:10;;;;;;;;;;;13.50;99.90;;;;;;4996070;28;19926;-71
2022/08/24 06:03:42;;;;;;;;;;;13.60;99.90;;;;;;5016896;28;19921;-72
2022/08/24 06:06:16;;;;;;;;;;;13.60;99.90;;;;;;5019804;28;19947;-71
2022/08/24 06:08:49;;;;;;;;;;;13.70;99.90;;;;;;5012477;28;20326;-71
2022/08/24 06:11:25;;;;;;;;;;;13.70;99.90;;;;;;4991722;28;19921;-71
2022/08/24 06:14:01;;;;;;;;;;;13.80;99.90;;;;;;5001100;28;19921;-71
2022/08/24 06:16:40;;;;;;;;;;;13.90;99.90;;;;;;5020993;28;19925;-71
2022/08/24 06:19:14;;;;;;;;;;;13.90;99.90;;;;;;5014379;28;19928;-72
2022/08/24 06:21:42;;;;;;;;;;;14.00;99.90;;;;;;5022820;28;20380;-71
2022/08/24 06:24:14;;;;;;;;;;;14.00;99.90;;;;;;5016318;28;19921;-72
2022/08/24 06:29:37;;;;;;;;;;;14.00;99.90;;;;;;5005420;28;19925;-72
2022/08/24 06:32:28;;;;;;;;;;;14.00;99.90;;;;;;5039630;28;19921;-71
2022/08/24 06:34:55;;;;;;;;;;;14.10;99.90;;;;;;4992384;28;20348;-71
2022/08/24 06:37:27;;;;;;;;;;;14.10;99.90;;;;;;5025942;28;19929;-71
2022/08/24 06:39:59;;;;;;;;;;;14.20;99.90;;;;;;5006217;28;19921;-71
2022/08/24 06:42:33;;;;;;;;;;;14.20;99.90;;;;;;5039876;28;19979;-71
2022/08/24 06:45:16;;;;;;;;;;;14.30;99.90;;;;;;5032812;28;19921;-70
2022/08/24 06:47:48;;;;;;;;;;;14.40;99.90;;;;;;5039121;28;19921;-72
2022/08/24 06:50:21;;;;;;;;;;;14.50;99.90;;;;;;5013183;28;19921;-70
2022/08/24 06:52:54;;;;;;;;;;;14.50;99.90;;;;;;5008073;28;19960;-71
2022/08/24 06:55:26;;;;;;;;;;;14.50;99.90;;;;;;5016668;28;20016;-71
2022/08/24 06:57:58;;;;;;;;;;;14.50;99.90;;;;;;5014154;28;20380;-71
2022/08/24 07:00:30;;;;;;;;;;;14.60;99.90;;;;;;4988442;28;20446;-72
2022/08/24 07:03:01;;;;;;;;;;;14.70;99.90;;;;;;5000433;28;19921;-72
2022/08/24 07:05:34;;;;;;;;;;;14.80;99.90;;;;;;5004917;28;19928;-71
2022/08/24 07:08:16;;;;;;;;;;;14.80;99.90;;;;;;4991380;28;19920;-73
2022/08/24 07:10:48;;;;;;;;;;;14.90;99.90;;;;;;5015570;28;19925;-72
2022/08/24 07:13:20;;;;;;;;;;;15.00;99.90;;;;;;5003775;28;19927;-72
2022/08/24 07:15:53;;;;;;;;;;;15.10;99.90;;;;;;5022838;28;20308;-72
2022/08/24 07:18:25;;;;;;;;;;;15.20;99.90;;;;;;5000636;28;19933;-72
2022/08/24 07:20:59;;;;;;;;;;;15.30;99.90;;;;;;5012554;28;19922;-72
2022/08/24 07:23:38;;;;;;;;;;;15.40;99.90;;;;;;5006477;28;19921;-71
2022/08/24 07:26:14;;;;;;;;;;;15.60;99.90;;;;;;5005073;28;19928;-71
2022/08/24 07:28:46;;;;;;;;;;;15.70;99.90;;;;;;5006500;28;19921;-72
2022/08/24 07:31:19;;;;;;;;;;;15.80;99.90;;;;;;5006052;28;19926;-72
2022/08/24 07:33:59;;;;;;;;;;;15.90;99.90;;;;;;5007158;28;20291;-71
2022/08/24 07:36:31;;;;;;;;;;;16.00;99.90;;;;;;5023375;28;19921;-71
2022/08/24 07:39:03;;;;;;;;;;;16.20;99.90;;;;;;5012565;28;19956;-72
2022/08/24 07:41:37;;;;;;;;;;;16.30;99.90;;;;;;5007100;28;20000;-71
2022/08/24 07:44:09;;;;;;;;;;;16.40;99.90;;;;;;5006302;28;19964;-71
2022/08/24 07:46:37;;;;;;;;;;;16.50;99.90;;;;;;5012126;28;19931;-71
2022/08/24 07:49:06;;;;;;;;;;;16.60;99.90;;;;;;5007734;28;19929;-71
2022/08/24 07:51:38;;;;;;;;;;;16.70;99.90;;;;;;5006383;28;19936;-71
2022/08/24 07:54:05;;;;;;;;;;;16.80;99.90;;;;;;5014590;28;19924;-72
2022/08/24 07:56:41;;;;;;;;;;;16.90;99.90;;;;;;4998946;28;19925;-71
2022/08/24 07:59:13;;;;;;;;;;;17.00;99.90;;;;;;5006621;28;20282;-73
2022/08/24 08:01:45;;;;;;;;;;;17.20;99.90;;;;;;5021341;28;19930;-71
2022/08/24 08:04:20;;;;;;;;;;;17.30;99.90;;;;;;5012754;28;19967;-71
2022/08/24 08:06:54;;;;;;;;;;;17.50;99.90;;;;;;5004493;28;19956;-70
2022/08/24 08:09:27;;;;;;;;;;;17.60;99.90;;;;;;5005193;28;19925;-71
2022/08/24 08:11:58;;;;;;;;;;;17.70;99.90;;;;;;5012207;28;19983;-72
2022/08/24 08:14:31;;;;;;;;;;;17.80;99.90;;;;;;5021833;28;20379;-72
2022/08/24 08:16:58;;;;;;;;;;;18.00;99.90;;;;;;5001792;28;19925;-71
2022/08/24 08:19:31;;;;;;;;;;;18.10;99.90;;;;;;5005638;28;20031;-72
2022/08/24 08:25:11;;;;;;;;;;;18.40;99.90;;;;;;5020050;28;19925;-71
2022/08/24 08:27:43;;;;;;;;;;;18.60;99.90;;;;;;5020910;28;20019;-71
2022/08/24 08:30:10;;;;;;;;;;;18.70;99.90;;;;;;5013184;28;20015;-72
2022/08/24 08:32:37;;;;;;;;;;;18.90;99.90;;;;;;4995245;28;19921;-72
2022/08/24 08:35:09;;;;;;;;;;;19.00;99.90;;;;;;5007422;28;19932;-72
2022/08/24 08:37:41;;;;;;;;;;;19.20;99.90;;;;;;4998501;28;20383;-71
2022/08/24 08:40:23;;;;;;;;;;;19.40;99.90;;;;;;5002491;28;19921;-72
2022/08/24 08:43:00;;;;;;;;;;;19.50;99.90;;;;;;5039009;28;20379;-71
2022/08/24 08:45:34;;;;;;;;;;;19.70;99.90;;;;;;4993118;28;19943;-71
2022/08/24 08:48:25;;;;;;;;;;;19.90;99.90;;;;;;5012017;28;20402;-72
2022/08/24 08:51:15;;;;;;;;;;;20.10;99.90;;;;;;5009544;28;19921;-71
2022/08/24 08:53:56;;;;;;;;;;;20.20;99.90;;;;;;5012894;28;20391;-72
2022/08/24 08:56:35;;;;;;;;;;;20.40;99.90;;;;;;5013453;28;19972;-72
2022/08/24 08:59:10;;;;;;;;;;;20.50;99.90;;;;;;5001867;28;19921;-71
2022/08/24 09:01:52;;;;;;;;;;;20.60;99.90;;;;;;4991780;28;20020;-71
2022/08/24 09:04:35;;;;;;;;;;;20.80;99.90;;;;;;4993808;28;19925;-71
2022/08/24 09:07:23;;;;;;;;;;;20.90;99.90;;;;;;5002701;28;19925;-72
2022/08/24 09:10:20;;;;;;;;;;;21.00;99.90;;;;;;5019257;28;20293;-71
2022/08/24 09:12:55;;;;;;;;;;;21.10;99.90;;;;;;5007694;28;19927;-71
2022/08/24 09:15:27;;;;;;;;;;;21.30;99.90;;;;;;5021111;28;19921;-70
2022/08/24 09:18:07;;;;;;;;;;;21.40;99.90;;;;;;5021544;28;19925;-71
2022/08/24 09:20:49;;;;;;;;;;;21.50;99.90;;;;;;5015162;28;20008;-71
2022/08/24 09:23:34;;;;;;;;;;;21.60;99.90;;;;;;5011550;28;19928;-71
2022/08/24 09:26:26;;;;;;;;;;;21.70;99.90;;;;;;4990582;28;19921;-71
2022/08/24 09:29:20;;;;;;;;;;;21.80;99.90;;;;;;5002332;28;19921;-73
2022/08/24 09:32:09;;;;;;;;;;;22.00;99.90;;;;;;5022906;28;19926;-71
2022/08/24 09:34:44;;;;;;;;;;;22.10;99.90;;;;;;5014935;28;19921;-71
2022/08/24 09:37:30;;;;;;;;;;;22.30;99.90;;;;;;5034433;28;20314;-71
2022/08/24 09:40:17;;;;;;;;;;;22.50;99.90;;;;;;5005152;28;20298;-71
2022/08/24 09:43:01;;;;;;;;;;;22.60;99.90;;;;;;5013308;28;19926;-71
2022/08/24 09:45:52;;;;;;;;;;;22.80;99.90;;;;;;5003437;28;19971;-71
2022/08/24 09:48:25;;;;;;;;;;;22.80;99.90;;;;;;5020948;28;19928;-72
2022/08/24 09:50:56;;;;;;;;;;;23.00;99.90;;;;;;5024973;28;19921;-72
2022/08/24 09:53:47;;;;;;;;;;;23.10;99.90;;;;;;5010272;28;19926;-72
2022/08/24 09:56:25;;;;;;;;;;;23.10;99.90;;;;;;5010725;28;20372;-73
2022/08/24 09:59:04;;;;;;;;;;;23.20;99.90;;;;;;5016687;28;19921;-72
2022/08/24 10:01:48;;;;;;;;;;;23.40;99.90;;;;;;5012257;28;19921;-72
2022/08/24 10:04:39;;;;;;;;;;;23.50;99.90;;;;;;5004787;28;20022;-73
2022/08/24 10:07:21;;;;;;;;;;;23.60;99.90;;;;;;5011842;28;19921;-73
2022/08/24 10:10:01;;;;;;;;;;;23.60;99.90;;;;;;5009462;28;19921;-73
2022/08/24 10:12:56;;;;;;;;;;;23.70;99.90;;;;;;5020418;28;20405;-73
2022/08/24 10:15:35;;;;;;;;;;;23.80;99.90;;;;;;5013694;28;19925;-73
2022/08/24 10:18:26;;;;;;;;;;;23.90;99.90;;;;;;5003040;28;19920;-73
2022/08/24 10:21:07;;;;;;;;;;;23.90;99.90;;;;;;4998619;28;20375;-73
2022/08/24 10:23:39;;;;;;;;;;;24.00;99.90;;;;;;4998529;28;19931;-72
2022/08/24 10:26:29;;;;;;;;;;;24.00;99.90;;;;;;5022227;28;20287;-72
2022/08/24 10:29:11;;;;;;;;;;;24.00;99.90;;;;;;5026260;28;20457;-72
2022/08/24 10:32:01;;;;;;;;;;;24.10;99.90;;;;;;5033365;28;19921;-73
2022/08/24 10:34:31;;;;;;;;;;;24.10;99.90;;;;;;5018513;28;20008;-73
2022/08/24 10:37:05;;;;;;;;;;;24.20;99.90;;;;;;5016755;28;19925;-73
2022/08/24 10:39:46;;;;;;;;;;;24.30;99.90;;;;;;5015197;28;19921;-73
2022/08/24 10:45:15;;;;;;;;;;;24.50;99.90;;;;;;5021351;28;19964;-73
2022/08/24 10:48:11;;;;;;;;;;;24.60;99.90;;;;;;5022182;28;19925;-73
2022/08/24 10:50:43;;;;;;;;;;;24.60;99.90;;;;;;4998321;28;19927;-73
2022/08/24 10:53:15;;;;;;;;;;;24.70;99.90;;;;;;5028301;28;19921;-73
2022/08/24 10:55:42;;;;;;;;;;;24.80;99.90;;;;;;5031569;28;19921;-73
2022/08/24 10:58:23;;;;;;;;;;;24.90;99.90;;;;;;5004949;28;19925;-73
2022/08/24 11:00:55;;;;;;;;;;;25.10;99.90;;;;;;5036560;28;19921;-73
2022/08/24 11:03:27;;;;;;;;;;;25.20;99.90;;;;;;5026393;28;20354;-73
2022/08/24 11:05:58;;;;;;;;;;;25.30;99.90;;;;;;5012020;28;19921;-73
2022/08/24 11:08:33;;;;;;;;;;;25.30;99.90;;;;;;5015900;28;19921;-72
2022/08/24 11:11:05;;;;;;;;;;;25.30;99.90;;;;;;5022846;28;19921;-73
2022/08/24 11:13:48;;;;;;;;;;;25.40;99.90;;;;;;5030329;28;19921;-73
2022/08/24 11:16:29;;;;;;;;;;;25.50;99.90;;;;;;5014713;28;19925;-72
2022/08/24 11:19:02;;;;;;;;;;;25.60;99.90;;;;;;4999525;28;19956;-73
2022/08/24 11:21:32;;;;;;;;;;;25.70;99.90;;;;;;5034146;28;19929;-72
2022/08/24 11:24:05;;;;;;;;;;;25.70;99.90;;;;;;5021402;28;19925;-72
2022/08/24 11:27:03;;;;;;;;;;;25.80;99.90;;;;;;5011330;28;19929;-73
2022/08/24 11:29:51;;;;;;;;;;;25.70;99.90;;;;;;5012383;28;19928;-73
2022/08/24 11:32:41;;;;;;;;;;;25.80;99.90;;;;;;5012259;28;19924;-72
2022/08/24 11:35:23;;;;;;;;;;;25.90;99.90;;;;;;5020688;28;19928;-73
2022/08/24 11:37:56;;;;;;;;;;;26.00;99.90;;;;;;5015165;28;20442;-73
2022/08/24 11:40:27;;;;;;;;;;;26.00;99.90;;;;;;5012923;28;20005;-73
2022/08/24 11:43:08;;;;;;;;;;;26.20;99.90;;;;;;5013008;28;19921;-72
2022/08/24 11:45:54;;;;;;;;;;;26.20;99.90;;;;;;5020345;28;19921;-73
2022/08/24 11:48:40;;;;;;;;;;;26.20;99.90;;;;;;5002945;28;19972;-73
2022/08/24 11:51:30;;;;;;;;;;;26.30;99.90;;;;;;5003868;28;20048;-73
2022/08/24 11:54:07;;;;;;;;;;;26.30;99.90;;;;;;5011790;28;19921;-73
2022/08/24 11:56:44;;;;;;;;;;;26.40;99.90;;;;;;5010373;28;20277;-73
2022/08/24 11:59:19;;;;;;;;;;;26.40;99.90;;;;;;5014075;28;19928;-72
2022/08/24 12:01:57;;;;;;;;;;;26.50;99.90;;;;;;5010921;28;19921;-72
2022/08/24 12:04:39;;;;;;;;;;;26.50;99.90;;;;;;5022857;28;20376;-73
2022/08/24 12:07:27;;;;;;;;;;;26.50;99.90;;;;;;5024758;28;20343;-73
2022/08/24 12:10:07;;;;;;;;;;;26.70;99.90;;;;;;5041915;28;19972;-72
2022/08/24 12:12:49;;;;;;;;;;;26.80;99.90;;;;;;5015208;28;19925;-72
2022/08/24 12:15:25;;;;;;;;;;;26.80;99.90;;;;;;5015134;28;20363;-73
2022/08/24 12:18:03;;;;;;;;;;;26.80;99.90;;;;;;5025863;28;19927;-73
2022/08/24 12:20:42;;;;;;;;;;;26.90;99.90;;;;;;4997151;28;19947;-73
2022/08/24 12:23:32;;;;;;;;;;;27.00;99.90;;;;;;5004078;28;19929;-73
2022/08/24 12:26:07;;;;;;;;;;;26.70;99.90;;;;;;5003845;28;19925;-73
2022/08/24 12:28:40;;;;;;;;;;;26.40;99.90;;;;;;5012266;28;19925;-73
2022/08/24 12:31:29;;;;;;;;;;;26.30;99.90;;;;;;4983150;28;20323;-73
2022/08/24 12:34:03;;;;;;;;;;;26.40;99.90;;;;;;5026777;28;20394;-72
2022/08/24 12:36:40;;;;;;;;;;;26.40;99.90;;;;;;5006700;28;19922;-73
2022/08/24 12:39:13;;;;;;;;;;;26.50;99.90;;;;;;5013965;28;19926;-73
2022/08/24 12:42:00;;;;;;;;;;;26.60;99.90;;;;;;5025333;28;20023;-73
2022/08/24 12:44:34;;;;;;;;;;;26.70;99.90;;;;;;5019152;28;20012;-73
2022/08/24 12:47:00;;;;;;;;;;;26.80;99.90;;;;;;5012502;28;19966;-73
2022/08/24 12:50:04;;;;;;;;;;;26.90;99.90;;;;;;5012928;28;19927;-72
2022/08/24 12:52:39;;;;;;;;;;;26.90;99.90;;;;;;4975016;28;19957;-73
2022/08/24 12:55:09;;;;;;;;;;;26.80;99.90;;;;;;5030342;28;19925;-73
2022/08/24 12:57:45;;;;;;;;;;;26.70;99.90;;;;;;5023225;28;20276;-73
2022/08/24 13:00:46;;;;;;;;;;;26.80;99.90;;;;;;5008682;28;20023;-72
2022/08/24 13:03:33;;;;;;;;;;;26.90;99.90;;;;;;5010283;28;19928;-73
2022/08/24 13:06:02;;;;;;;;;;;27.10;99.90;;;;;;5005600;28;19925;-73
2022/08/24 13:08:41;;;;;;;;;;;27.20;99.90;;;;;;5018364;28;19929;-73
2022/08/24 13:11:15;;;;;;;;;;;27.40;99.90;;;;;;5008901;28;19921;-73
2022/08/24 13:14:04;;;;;;;;;;;27.60;99.90;;;;;;4995603;28;19949;-73
2022/08/24 13:16:55;;;;;;;;;;;27.70;99.90;;;;;;5038756;28;19932;-73
2022/08/24 13:19:32;;;;;;;;;;;27.80;99.90;;;;;;5010730;28;19932;-73
2022/08/24 13:22:08;;;;;;;;;;;27.90;99.90;;;;;;5011517;28;19925;-72
2022/08/24 13:24:41;;;;;;;;;;;28.00;99.80;;;;;;5000666;28;19931;-73
2022/08/24 13:27:13;;;;;;;;;;;28.10;98.60;;;;;;5021632;28;19925;-72
2022/08/24 13:29:42;;;;;;;;;;;28.20;98.60;;;;;;5012928;28;19921;-73
2022/08/24 13:32:19;;;;;;;;;;;28.30;99.00;;;;;;5011541;28;19947;-73
2022/08/24 13:34:51;;;;;;;;;;;28.40;99.00;;;;;;5012746;28;19943;-73
2022/08/24 13:37:24;;;;;;;;;;;28.20;99.00;;;;;;5008719;28;19968;-73
2022/08/24 13:40:13;;;;;;;;;;;28.00;99.90;;;;;;5010383;28;19921;-72
2022/08/24 13:43:04;;;;;;;;;;;28.00;99.50;;;;;;5010060;28;19932;-73
2022/08/24 13:45:45;;;;;;;;;;;28.10;99.20;;;;;;5012247;28;19921;-72
2022/08/24 13:48:32;;;;;;;;;;;28.10;99.40;;;;;;5023592;28;19921;-73
2022/08/24 13:51:12;;;;;;;;;;;28.10;99.40;;;;;;5001416;28;20011;-72
2022/08/24 13:54:02;;;;;;;;;;;28.20;98.80;;;;;;5015661;28;19948;-73
2022/08/24 13:56:48;;;;;;;;;;;28.00;98.90;;;;;;5015188;28;19928;-73
2022/08/24 13:59:35;;;;;;;;;;;28.10;98.20;;;;;;5001838;28;19972;-73
2022/08/24 14:02:24;;;;;;;;;;;28.30;98.60;;;;;;5011085;28;19944;-72
2022/08/24 14:05:00;;;;;;;;;;;28.60;98.50;;;;;;5030024;28;20028;-73
2022/08/24 14:07:42;;;;;;;;;;;28.80;98.20;;;;;;5007034;28;19921;-73
2022/08/24 14:10:23;;;;;;;;;;;28.60;97.50;;;;;;5026792;28;19921;-72
2022/08/24 14:13:00;;;;;;;;;;;28.40;98.20;;;;;;5013573;28;19925;-73
2022/08/24 14:17:50;;;;;;;;;;;28.10;98.40;;;;;;5012629;28;19921;-72
2022/08/24 14:18:53;;;;;;;;;;;28.30;98.30;;;;;;5016012;28;19983;-72
2022/08/24 14:21:21;;;;;;;;;;;28.60;97.90;;;;;;5020780;28;20013;-73
2022/08/24 14:23:55;;;;;;;;;;;29.00;97.40;;;;;;5014842;28;19932;-72
2022/08/24 14:26:36;;;;;;;;;;;29.20;97.30;;;;;;5011507;28;20269;-73
2022/08/24 14:29:14;;;;;;;;;;;29.20;97.30;;;;;;5003584;28;20269;-73
2022/08/24 14:31:52;;;;;;;;;;;28.80;96.70;;;;;;5006094;28;19921;-72
2022/08/24 14:34:30;;;;;;;;;;;28.50;96.80;;;;;;5029772;28;19925;-72
2022/08/24 14:37:17;;;;;;;;;;;28.50;97.00;;;;;;5032451;28;19927;-72
2022/08/24 14:40:01;;;;;;;;;;;28.80;96.70;;;;;;5009691;28;19924;-73
2022/08/24 14:42:37;;;;;;;;;;;29.20;96.40;;;;;;5006179;28;19931;-73
2022/08/24 14:45:27;;;;;;;;;;;29.60;95.50;;;;;;5020256;28;19921;-73
2022/08/24 14:48:03;;;;;;;;;;;29.90;94.40;;;;;;5024575;28;20281;-73
2022/08/24 14:50:47;;;;;;;;;;;30.30;94.10;;;;;;5013316;28;19924;-73
2022/08/24 14:53:19;;;;;;;;;;;30.50;93.80;;;;;;5002417;28;19929;-73
2022/08/24 14:56:13;;;;;;;;;;;30.80;93.00;;;;;;5012496;28;19958;-73
2022/08/24 14:59:17;;;;;;;;;;;30.90;92.40;;;;;;5012594;28;20319;-73
2022/08/24 15:01:58;;;;;;;;;;;31.10;92.40;;;;;;4976847;28;20291;-73
2022/08/24 15:04:30;;;;;;;;;;;31.40;92.10;;;;;;5013688;28;19933;-73
2022/08/24 15:07:05;;;;;;;;;;;31.50;91.00;;;;;;5007173;28;20015;-73
2022/08/24 15:09:37;;;;;;;;;;;31.50;90.60;;;;;;5006722;28;20004;-73
2022/08/24 15:12:20;;;;;;;;;;;31.80;90.00;;;;;;5016346;28;19932;-73
2022/08/24 15:14:57;;;;;;;;;;;31.90;90.20;;;;;;5014944;28;20259;-74
2022/08/24 15:17:38;;;;;;;;;;;31.90;89.50;;;;;;5031403;28;19921;-73
2022/08/24 15:20:32;;;;;;;;;;;32.20;89.10;;;;;;5018152;28;20003;-73
2022/08/24 15:23:04;;;;;;;;;;;32.30;85.10;;;;;;5015640;28;20803;-73